createdAt,value
2019-01-09T00:00:37.655Z,987.21
2019-01-09T00:01:37.698Z,987.19
2019-01-09T00:02:37.727Z,987.24
2019-01-09T00:03:37.762Z,987.13
2019-01-09T00:04:37.795Z,987.22
2019-01-09T00:05:37.829Z,987.22
2019-01-09T00:06:37.864Z,987.20
2019-01-09T00:07:37.915Z,987.27
2019-01-09T00:08:37.935Z,987.27
2019-01-09T00:09:37.973Z,987.24
2019-01-09T00:10:38.007Z,987.28
2019-01-09T00:11:38.046Z,987.28
2019-01-09T00:12:38.085Z,987.30
2019-01-09T00:13:38.114Z,987.30
2019-01-09T00:14:38.151Z,987.32
2019-01-09T00:15:38.182Z,987.23
2019-01-09T00:16:38.234Z,987.32
2019-01-09T00:17:38.253Z,987.29
2019-01-09T00:18:38.287Z,987.29
2019-01-09T00:19:38.322Z,987.36
2019-01-09T00:20:38.357Z,987.28
2019-01-09T00:21:38.393Z,987.29
2019-01-09T00:22:38.435Z,987.28
2019-01-09T00:23:38.470Z,987.35
2019-01-09T00:24:38.498Z,987.37
2019-01-09T00:25:38.533Z,987.38
2019-01-09T00:26:38.567Z,987.36
2019-01-09T00:27:38.603Z,987.29
2019-01-09T00:28:38.638Z,987.36
2019-01-09T00:29:38.673Z,987.38
2019-01-09T00:30:38.707Z,987.37
2019-01-09T00:31:38.743Z,987.38
2019-01-09T00:32:38.778Z,987.35
2019-01-09T00:33:38.813Z,987.32
2019-01-09T00:34:38.847Z,987.36
2019-01-09T00:35:38.883Z,987.46
2019-01-09T00:36:38.919Z,987.36
2019-01-09T00:37:38.951Z,987.36
2019-01-09T00:38:40.530Z,987.33
2019-01-09T00:39:39.022Z,987.37
2019-01-09T00:40:39.058Z,987.31
2019-01-09T00:41:39.093Z,987.36
2019-01-09T00:42:39.128Z,987.38
2019-01-09T00:43:39.168Z,987.36
2019-01-09T00:44:39.207Z,987.32
2019-01-09T00:45:39.242Z,987.36
2019-01-09T00:46:39.271Z,987.30
2019-01-09T00:47:39.303Z,987.37
2019-01-09T00:48:39.345Z,987.32
2019-01-09T00:49:39.377Z,987.37
2019-01-09T00:50:39.417Z,987.30
2019-01-09T00:51:39.453Z,987.36
2019-01-09T00:52:39.480Z,987.35
2019-01-09T00:53:39.519Z,987.31
2019-01-09T00:54:39.549Z,987.27
2019-01-09T00:55:39.585Z,987.28
2019-01-09T00:56:39.621Z,987.34
2019-01-09T00:57:39.657Z,987.23
2019-01-09T00:58:39.690Z,987.25
2019-01-09T00:59:39.727Z,987.24
2019-01-09T01:00:39.760Z,987.28
2019-01-09T01:01:39.803Z,987.17
2019-01-09T01:02:39.834Z,987.20
2019-01-09T01:03:39.947Z,987.20
2019-01-09T01:04:39.901Z,987.22
2019-01-09T01:05:46.006Z,987.15
2019-01-09T01:06:39.972Z,987.14
2019-01-09T01:07:40.009Z,987.18
2019-01-09T01:08:40.044Z,987.20
2019-01-09T01:09:40.078Z,987.17
2019-01-09T01:10:40.118Z,987.20
2019-01-09T01:11:40.147Z,987.13
2019-01-09T01:12:40.183Z,987.21
2019-01-09T01:13:40.222Z,987.18
2019-01-09T01:14:40.253Z,987.16
2019-01-09T01:15:40.295Z,987.13
2019-01-09T01:16:40.323Z,987.17
2019-01-09T01:17:40.358Z,987.09
2019-01-09T01:18:40.394Z,987.12
2019-01-09T01:19:40.430Z,987.14
2019-01-09T01:20:40.467Z,987.06
2019-01-09T01:21:40.500Z,987.05
2019-01-09T01:22:40.548Z,987.09
2019-01-09T01:23:40.570Z,987.06
2019-01-09T01:24:40.605Z,987.04
2019-01-09T01:25:40.743Z,987.11
2019-01-09T01:26:40.676Z,987.11
2019-01-09T01:27:40.711Z,987.10
2019-01-09T01:28:40.747Z,987.11
2019-01-09T01:29:40.781Z,987.11
2019-01-09T01:30:40.827Z,987.11
2019-01-09T01:31:40.852Z,987.13
2019-01-09T01:32:40.887Z,987.18
2019-01-09T01:33:40.924Z,987.14
2019-01-09T01:34:40.959Z,987.18
2019-01-09T01:35:40.993Z,987.16
2019-01-09T01:36:41.028Z,987.16
2019-01-09T01:37:41.065Z,987.17
2019-01-09T01:38:41.098Z,987.19
2019-01-09T01:39:41.137Z,987.23
2019-01-09T01:40:41.170Z,987.24
2019-01-09T01:41:41.205Z,987.24
2019-01-09T01:42:41.239Z,987.19
2019-01-09T01:43:41.274Z,987.23
2019-01-09T01:44:41.412Z,987.33
2019-01-09T01:45:41.439Z,987.26
2019-01-09T01:46:41.380Z,987.28
2019-01-09T01:47:41.415Z,987.31
2019-01-09T01:48:41.458Z,987.29
2019-01-09T01:49:41.486Z,987.34
2019-01-09T01:50:41.522Z,987.27
2019-01-09T01:51:41.558Z,987.33
2019-01-09T01:52:41.592Z,987.37
2019-01-09T01:53:41.628Z,987.31
2019-01-09T01:54:41.661Z,987.30
2019-01-09T01:55:41.698Z,987.29
2019-01-09T01:56:41.733Z,987.31
2019-01-09T01:57:41.771Z,987.32
2019-01-09T01:58:41.810Z,987.29
2019-01-09T01:59:41.839Z,987.27
2019-01-09T02:00:41.874Z,987.26
2019-01-09T02:01:41.912Z,987.28
2019-01-09T02:02:41.946Z,987.31
2019-01-09T02:03:42.046Z,987.26
2019-01-09T02:04:42.014Z,987.29
2019-01-09T02:05:42.049Z,987.30
2019-01-09T02:06:42.084Z,987.34
2019-01-09T02:07:42.134Z,987.31
2019-01-09T02:08:42.160Z,987.26
2019-01-09T02:09:42.190Z,987.33
2019-01-09T02:10:42.227Z,987.36
2019-01-09T02:11:42.259Z,987.32
2019-01-09T02:12:42.294Z,987.41
2019-01-09T02:13:42.330Z,987.43
2019-01-09T02:14:42.364Z,987.58
2019-01-09T02:15:42.405Z,987.70
2019-01-09T02:16:42.436Z,987.77
2019-01-09T02:17:42.471Z,988.00
2019-01-09T02:18:42.512Z,987.92
2019-01-09T02:19:42.544Z,987.90
2019-01-09T02:20:42.576Z,987.89
2019-01-09T02:21:42.615Z,987.93
2019-01-09T02:22:42.657Z,987.75
2019-01-09T02:23:42.681Z,987.90
2019-01-09T02:24:42.718Z,987.84
2019-01-09T02:25:42.753Z,987.74
2019-01-09T02:26:42.788Z,987.82
2019-01-09T02:27:42.822Z,987.77
2019-01-09T02:28:42.857Z,987.83
2019-01-09T02:29:42.892Z,987.83
2019-01-09T02:30:42.933Z,987.76
2019-01-09T02:31:42.965Z,987.83
2019-01-09T02:32:42.998Z,987.84
2019-01-09T02:33:43.042Z,987.82
2019-01-09T02:34:43.084Z,987.78
2019-01-09T02:35:43.106Z,987.78
2019-01-09T02:36:43.146Z,987.83
2019-01-09T02:37:43.182Z,987.83
2019-01-09T02:38:43.208Z,987.79
2019-01-09T02:39:43.249Z,987.80
2019-01-09T02:40:43.278Z,987.80
2019-01-09T02:41:43.313Z,987.85
2019-01-09T02:42:43.378Z,987.84
2019-01-09T02:43:43.383Z,987.75
2019-01-09T02:44:43.418Z,987.80
2019-01-09T02:45:43.456Z,987.80
2019-01-09T02:46:43.487Z,987.80
2019-01-09T02:47:43.522Z,987.83
2019-01-09T02:48:43.559Z,987.89
2019-01-09T02:49:43.594Z,987.76
2019-01-09T02:50:43.626Z,987.81
2019-01-09T02:51:43.662Z,987.79
2019-01-09T02:52:43.699Z,987.82
2019-01-09T02:53:43.740Z,987.76
2019-01-09T02:54:43.767Z,987.80
2019-01-09T02:55:43.802Z,987.72
2019-01-09T02:56:43.841Z,987.90
2019-01-09T02:57:43.871Z,987.81
2019-01-09T02:58:43.911Z,987.83
2019-01-09T02:59:43.943Z,987.80
2019-01-09T03:00:43.978Z,987.78
2019-01-09T03:01:44.106Z,987.78
2019-01-09T03:02:44.048Z,987.83
2019-01-09T03:03:44.080Z,987.87
2019-01-09T03:04:44.117Z,987.77
2019-01-09T03:05:44.154Z,987.76
2019-01-09T03:06:44.187Z,987.77
2019-01-09T03:07:44.221Z,987.88
2019-01-09T03:08:44.257Z,987.76
2019-01-09T03:09:44.293Z,987.74
2019-01-09T03:10:44.326Z,987.79
2019-01-09T03:11:44.361Z,987.77
2019-01-09T03:12:44.397Z,987.81
2019-01-09T03:13:44.430Z,987.69
2019-01-09T03:14:44.465Z,987.75
2019-01-09T03:15:44.501Z,987.64
2019-01-09T03:16:44.536Z,987.66
2019-01-09T03:17:44.572Z,987.64
2019-01-09T03:18:44.604Z,987.75
2019-01-09T03:19:44.641Z,987.68
2019-01-09T03:20:44.676Z,987.64
2019-01-09T03:21:44.724Z,987.64
2019-01-09T03:22:44.746Z,987.63
2019-01-09T03:23:44.785Z,987.63
2019-01-09T03:24:44.816Z,987.64
2019-01-09T03:25:44.851Z,987.58
2019-01-09T03:26:44.886Z,987.54
2019-01-09T03:27:44.921Z,987.61
2019-01-09T03:28:44.957Z,987.61
2019-01-09T03:29:44.995Z,987.46
2019-01-09T03:30:45.035Z,987.47
2019-01-09T03:31:45.066Z,987.55
2019-01-09T03:32:45.317Z,987.60
2019-01-09T03:33:45.130Z,987.53
2019-01-09T03:34:45.171Z,987.50
2019-01-09T03:35:45.201Z,987.49
2019-01-09T03:36:45.236Z,987.53
2019-01-09T03:37:45.271Z,987.49
2019-01-09T03:38:45.306Z,987.54
2019-01-09T03:39:45.346Z,987.48
2019-01-09T03:40:45.379Z,987.50
2019-01-09T03:41:45.411Z,987.50
2019-01-09T03:42:45.444Z,987.48
2019-01-09T03:43:45.491Z,987.49
2019-01-09T03:44:45.517Z,987.47
2019-01-09T03:45:45.556Z,987.48
2019-01-09T03:46:45.590Z,987.49
2019-01-09T03:47:45.619Z,987.56
2019-01-09T03:48:45.655Z,987.53
2019-01-09T03:49:45.690Z,987.61
2019-01-09T03:50:45.724Z,987.54
2019-01-09T03:51:45.760Z,987.47
2019-01-09T03:52:45.796Z,987.56
2019-01-09T03:53:45.954Z,987.45
2019-01-09T03:54:45.864Z,987.46
2019-01-09T03:55:45.904Z,987.57
2019-01-09T03:56:45.936Z,987.63
2019-01-09T03:57:45.971Z,987.49
2019-01-09T03:58:46.008Z,987.52
2019-01-09T03:59:46.039Z,987.61
2019-01-09T04:00:46.076Z,987.57
2019-01-09T04:01:46.115Z,987.58
2019-01-09T04:02:46.145Z,987.58
2019-01-09T04:03:46.192Z,987.48
2019-01-09T04:04:46.215Z,987.59
2019-01-09T04:05:46.257Z,987.56
2019-01-09T04:06:46.287Z,987.51
2019-01-09T04:07:46.320Z,987.61
2019-01-09T04:08:46.355Z,987.47
2019-01-09T04:09:46.398Z,987.52
2019-01-09T04:10:46.426Z,987.65
2019-01-09T04:11:46.460Z,987.52
2019-01-09T04:12:46.496Z,987.53
2019-01-09T04:13:46.534Z,987.52
2019-01-09T04:14:46.565Z,987.52
2019-01-09T04:15:46.599Z,987.60
2019-01-09T04:16:46.634Z,987.49
2019-01-09T04:17:46.669Z,987.58
2019-01-09T04:18:46.709Z,987.62
2019-01-09T04:19:46.741Z,987.56
2019-01-09T04:20:46.774Z,987.50
2019-01-09T04:21:46.910Z,987.55
2019-01-09T04:22:46.846Z,987.58
2019-01-09T04:23:46.880Z,987.67
2019-01-09T04:24:46.934Z,987.58
2019-01-09T04:25:46.949Z,987.69
2019-01-09T04:26:46.983Z,987.63
2019-01-09T04:27:47.018Z,987.45
2019-01-09T04:28:47.075Z,987.55
2019-01-09T04:29:47.088Z,987.52
2019-01-09T04:30:47.122Z,987.61
2019-01-09T04:31:47.164Z,987.47
2019-01-09T04:32:47.196Z,987.53
2019-01-09T04:33:47.234Z,987.60
2019-01-09T04:34:47.265Z,987.51
2019-01-09T04:35:47.300Z,987.63
2019-01-09T04:36:51.758Z,987.58
2019-01-09T04:37:47.372Z,987.71
2019-01-09T04:38:47.404Z,987.71
2019-01-09T04:39:47.439Z,987.69
2019-01-09T04:40:47.805Z,987.68
2019-01-09T04:41:47.509Z,987.67
2019-01-09T04:42:47.545Z,987.66
2019-01-09T04:43:47.585Z,987.63
2019-01-09T04:44:47.613Z,987.69
2019-01-09T04:45:47.650Z,987.70
2019-01-09T04:46:47.707Z,987.70
2019-01-09T04:47:47.725Z,987.78
2019-01-09T04:48:47.759Z,987.78
2019-01-09T04:49:47.790Z,987.78
2019-01-09T04:50:47.822Z,987.81
2019-01-09T04:51:47.857Z,987.81
2019-01-09T04:52:47.894Z,987.92
2019-01-09T04:53:47.930Z,987.91
2019-01-09T04:54:47.963Z,987.80
2019-01-09T04:55:48.002Z,987.85
2019-01-09T04:56:48.033Z,987.88
2019-01-09T04:57:48.069Z,987.80
2019-01-09T04:58:48.103Z,987.81
2019-01-09T04:59:48.136Z,987.79
2019-01-09T05:00:48.173Z,987.78
2019-01-09T05:01:48.210Z,987.80
2019-01-09T05:02:48.243Z,987.93
2019-01-09T05:03:48.280Z,987.83
2019-01-09T05:04:49.475Z,987.78
2019-01-09T05:05:48.346Z,987.79
2019-01-09T05:06:48.384Z,987.84
2019-01-09T05:07:48.415Z,987.85
2019-01-09T05:08:48.451Z,987.88
2019-01-09T05:09:48.492Z,987.86
2019-01-09T05:10:48.519Z,987.82
2019-01-09T05:11:48.651Z,987.81
2019-01-09T05:12:48.592Z,987.82
2019-01-09T05:13:48.629Z,987.82
2019-01-09T05:14:48.660Z,987.82
2019-01-09T05:15:48.711Z,987.82
2019-01-09T05:16:48.732Z,987.80
2019-01-09T05:17:48.766Z,987.86
2019-01-09T05:18:48.800Z,987.84
2019-01-09T05:19:48.834Z,987.80
2019-01-09T05:20:48.871Z,987.86
2019-01-09T05:21:48.907Z,987.81
2019-01-09T05:22:48.939Z,987.80
2019-01-09T05:23:48.975Z,987.89
2019-01-09T05:24:49.012Z,987.89
2019-01-09T05:25:49.048Z,987.85
2019-01-09T05:26:49.091Z,987.87
2019-01-09T05:27:49.118Z,987.88
2019-01-09T05:28:49.151Z,987.88
2019-01-09T05:29:49.184Z,987.88
2019-01-09T05:30:49.302Z,987.88
2019-01-09T05:31:49.265Z,987.94
2019-01-09T05:32:49.289Z,987.96
2019-01-09T05:33:49.324Z,987.92
2019-01-09T05:34:49.359Z,987.95
2019-01-09T05:35:49.394Z,987.97
2019-01-09T05:36:49.450Z,987.94
2019-01-09T05:37:49.465Z,987.93
2019-01-09T05:38:49.498Z,987.93
2019-01-09T05:39:49.543Z,987.94
2019-01-09T05:40:49.569Z,987.95
2019-01-09T05:41:49.609Z,987.94
2019-01-09T05:42:49.638Z,987.95
2019-01-09T05:43:49.671Z,987.90
2019-01-09T05:44:49.707Z,987.98
2019-01-09T05:45:49.744Z,987.96
2019-01-09T05:46:49.781Z,987.94
2019-01-09T05:47:49.811Z,987.96
2019-01-09T05:48:49.855Z,987.95
2019-01-09T05:49:49.887Z,988.02
2019-01-09T05:50:49.915Z,987.93
2019-01-09T05:51:49.951Z,987.97
2019-01-09T05:52:49.990Z,987.94
2019-01-09T05:53:50.024Z,987.90
2019-01-09T05:54:50.056Z,987.96
2019-01-09T05:55:50.091Z,987.93
2019-01-09T05:56:50.126Z,987.99
2019-01-09T05:57:50.161Z,988.05
2019-01-09T05:58:50.199Z,988.03
2019-01-09T05:59:50.232Z,988.01
2019-01-09T06:00:50.267Z,988.01
2019-01-09T06:01:50.304Z,987.98
2019-01-09T06:02:50.340Z,987.99
2019-01-09T06:03:50.374Z,988.03
2019-01-09T06:04:50.406Z,987.98
2019-01-09T06:05:50.443Z,987.97
2019-01-09T06:06:50.477Z,988.00
2019-01-09T06:07:50.513Z,988.00
2019-01-09T06:08:50.546Z,988.05
2019-01-09T06:09:50.583Z,987.97
2019-01-09T06:10:50.615Z,988.10
2019-01-09T06:11:50.650Z,988.09
2019-01-09T06:12:50.684Z,988.03
2019-01-09T06:13:50.720Z,988.13
2019-01-09T06:14:50.757Z,988.04
2019-01-09T06:15:50.791Z,988.04
2019-01-09T06:16:50.827Z,988.05
2019-01-09T06:17:50.861Z,988.05
2019-01-09T06:18:50.894Z,988.12
2019-01-09T06:19:50.930Z,988.11
2019-01-09T06:20:50.990Z,988.21
2019-01-09T06:21:51.000Z,988.12
2019-01-09T06:22:51.033Z,988.16
2019-01-09T06:23:51.071Z,988.15
2019-01-09T06:24:51.104Z,988.18
2019-01-09T06:25:51.141Z,988.17
2019-01-09T06:26:51.173Z,988.21
2019-01-09T06:27:51.212Z,988.20
2019-01-09T06:28:51.248Z,988.24
2019-01-09T06:29:51.280Z,988.24
2019-01-09T06:30:51.321Z,988.26
2019-01-09T06:31:51.349Z,988.22
2019-01-09T06:32:51.385Z,988.25
2019-01-09T06:33:51.428Z,988.22
2019-01-09T06:34:51.462Z,988.35
2019-01-09T06:35:51.489Z,988.21
2019-01-09T06:36:51.532Z,988.30
2019-01-09T06:37:51.559Z,988.36
2019-01-09T06:38:51.594Z,988.40
2019-01-09T06:39:51.629Z,988.38
2019-01-09T06:40:51.665Z,988.34
2019-01-09T06:41:51.700Z,988.42
2019-01-09T06:42:51.741Z,988.36
2019-01-09T06:43:51.768Z,988.41
2019-01-09T06:44:51.804Z,988.45
2019-01-09T06:45:51.838Z,988.49
2019-01-09T06:46:51.874Z,988.46
2019-01-09T06:47:51.909Z,988.53
2019-01-09T06:48:51.944Z,988.49
2019-01-09T06:49:51.978Z,988.54
2019-01-09T06:50:52.015Z,988.63
2019-01-09T06:51:52.050Z,988.66
2019-01-09T06:52:52.086Z,988.61
2019-01-09T06:53:52.142Z,988.62
2019-01-09T06:54:52.201Z,988.60
2019-01-09T06:55:52.211Z,988.64
2019-01-09T06:56:52.235Z,988.67
2019-01-09T06:57:52.258Z,988.58
2019-01-09T06:58:52.296Z,988.63
2019-01-09T06:59:52.332Z,988.62
2019-01-09T07:00:52.376Z,988.65
2019-01-09T07:01:52.408Z,988.59
2019-01-09T07:02:52.432Z,988.60
2019-01-09T07:03:52.475Z,988.62
2019-01-09T07:04:52.502Z,988.60
2019-01-09T07:05:52.538Z,988.62
2019-01-09T07:06:52.573Z,988.57
2019-01-09T07:07:52.612Z,988.61
2019-01-09T07:08:52.643Z,988.62
2019-01-09T07:09:52.682Z,988.60
2019-01-09T07:10:52.713Z,988.62
2019-01-09T07:11:52.750Z,988.63
2019-01-09T07:12:52.781Z,988.59
2019-01-09T07:13:52.817Z,988.64
2019-01-09T07:14:52.860Z,988.68
2019-01-09T07:15:52.886Z,988.63
2019-01-09T07:16:52.921Z,988.66
2019-01-09T07:17:52.957Z,988.58
2019-01-09T07:18:52.990Z,988.64
2019-01-09T07:19:53.025Z,988.63
2019-01-09T07:20:53.061Z,988.68
2019-01-09T07:21:53.095Z,988.69
2019-01-09T07:22:53.281Z,988.74
2019-01-09T07:23:53.168Z,988.72
2019-01-09T07:24:53.200Z,988.68
2019-01-09T07:25:53.237Z,988.70
2019-01-09T07:26:53.271Z,988.76
2019-01-09T07:27:53.305Z,988.77
2019-01-09T07:28:53.348Z,988.71
2019-01-09T07:29:53.378Z,988.73
2019-01-09T07:30:53.427Z,988.74
2019-01-09T07:31:53.450Z,988.78
2019-01-09T07:32:53.481Z,988.75
2019-01-09T07:33:53.516Z,988.78
2019-01-09T07:34:53.551Z,988.76
2019-01-09T07:35:53.586Z,988.76
2019-01-09T07:36:53.621Z,988.78
2019-01-09T07:37:53.657Z,988.77
2019-01-09T07:38:53.701Z,988.81
2019-01-09T07:39:53.729Z,988.84
2019-01-09T07:40:53.762Z,988.82
2019-01-09T07:41:53.798Z,988.87
2019-01-09T07:42:53.832Z,988.86
2019-01-09T07:43:53.867Z,988.83
2019-01-09T07:44:53.902Z,988.83
2019-01-09T07:45:53.946Z,988.87
2019-01-09T07:46:53.970Z,988.81
2019-01-09T07:47:54.011Z,988.85
2019-01-09T07:48:54.041Z,988.87
2019-01-09T07:49:54.077Z,988.90
2019-01-09T07:50:54.111Z,988.90
2019-01-09T07:51:54.146Z,988.92
2019-01-09T07:52:54.183Z,988.83
2019-01-09T07:53:57.272Z,988.93
2019-01-09T07:54:54.250Z,988.90
2019-01-09T07:55:54.295Z,988.91
2019-01-09T07:56:54.325Z,988.86
2019-01-09T07:57:54.361Z,988.93
2019-01-09T07:58:54.392Z,988.94
2019-01-09T07:59:54.429Z,988.95
2019-01-09T08:00:54.464Z,989.00
2019-01-09T08:01:54.506Z,989.02
2019-01-09T08:02:54.533Z,988.97
2019-01-09T08:03:54.570Z,988.97
2019-01-09T08:04:54.613Z,988.94
2019-01-09T08:05:54.640Z,988.91
2019-01-09T08:06:54.675Z,988.97
2019-01-09T08:07:54.708Z,988.99
2019-01-09T08:08:54.744Z,988.93
2019-01-09T08:09:54.782Z,988.96
2019-01-09T08:10:54.819Z,989.01
2019-01-09T08:11:54.849Z,989.02
2019-01-09T08:12:54.884Z,989.00
2019-01-09T08:13:54.922Z,989.04
2019-01-09T08:14:54.962Z,989.06
2019-01-09T08:15:54.992Z,989.00
2019-01-09T08:16:55.031Z,989.04
2019-01-09T08:17:55.063Z,989.06
2019-01-09T08:18:55.101Z,989.08
2019-01-09T08:19:55.132Z,989.12
2019-01-09T08:20:55.170Z,989.10
2019-01-09T08:21:55.206Z,989.14
2019-01-09T08:22:55.236Z,989.17
2019-01-09T08:23:55.282Z,989.13
2019-01-09T08:24:55.307Z,989.12
2019-01-09T08:25:55.342Z,989.11
2019-01-09T08:26:55.378Z,989.10
2019-01-09T08:27:55.414Z,989.14
2019-01-09T08:28:55.448Z,989.11
2019-01-09T08:29:55.484Z,989.14
2019-01-09T08:30:55.565Z,989.16
2019-01-09T08:31:55.556Z,989.12
2019-01-09T08:32:55.589Z,989.24
2019-01-09T08:33:55.626Z,989.26
2019-01-09T08:34:55.659Z,989.18
2019-01-09T08:35:55.694Z,989.29
2019-01-09T08:36:55.729Z,989.20
2019-01-09T08:38:02.714Z,989.21
2019-01-09T08:38:55.801Z,989.46
2019-01-09T08:39:55.836Z,989.32
2019-01-09T08:40:55.874Z,989.34
2019-01-09T08:41:55.909Z,989.37
2019-01-09T08:42:55.942Z,989.33
2019-01-09T08:43:56.000Z,989.35
2019-01-09T08:44:56.013Z,989.35
2019-01-09T08:45:56.049Z,989.40
2019-01-09T08:46:56.088Z,989.43
2019-01-09T08:47:56.128Z,989.40
2019-01-09T08:48:56.155Z,989.39
2019-01-09T08:49:56.190Z,989.45
2019-01-09T08:50:56.224Z,989.40
2019-01-09T08:51:56.260Z,989.44
2019-01-09T08:52:56.295Z,989.43
2019-01-09T08:53:56.330Z,989.57
2019-01-09T08:54:56.365Z,989.44
2019-01-09T08:55:56.400Z,989.47
2019-01-09T08:56:56.435Z,989.46
2019-01-09T08:57:56.474Z,989.49
2019-01-09T08:58:56.506Z,989.79
2019-01-09T08:59:56.549Z,989.42
2019-01-09T09:00:56.582Z,989.53
2019-01-09T09:01:56.614Z,989.55
2019-01-09T09:02:56.647Z,989.64
2019-01-09T09:03:56.683Z,989.54
2019-01-09T09:04:56.728Z,989.62
2019-01-09T09:05:56.754Z,989.75
2019-01-09T09:06:56.788Z,989.67
2019-01-09T09:07:56.925Z,989.96
2019-01-09T09:08:56.866Z,989.75
2019-01-09T09:09:56.894Z,989.73
2019-01-09T09:10:56.930Z,989.71
2019-01-09T09:11:56.975Z,989.76
2019-01-09T09:12:57.002Z,989.76
2019-01-09T09:13:57.037Z,989.81
2019-01-09T09:14:57.075Z,989.69
2019-01-09T09:15:57.112Z,989.75
2019-01-09T09:16:57.142Z,989.81
2019-01-09T09:17:57.189Z,989.80
2019-01-09T09:18:57.213Z,989.80
2019-01-09T09:19:57.255Z,989.78
2019-01-09T09:20:57.287Z,989.85
2019-01-09T09:21:57.328Z,989.84
2019-01-09T09:22:57.366Z,989.86
2019-01-09T09:23:57.391Z,989.85
2019-01-09T09:24:57.431Z,989.89
2019-01-09T09:25:57.463Z,989.80
2019-01-09T09:26:57.496Z,989.85
2019-01-09T09:27:57.533Z,989.80
2019-01-09T09:28:57.575Z,989.79
2019-01-09T09:29:57.603Z,989.79
2019-01-09T09:30:57.714Z,989.79
2019-01-09T09:31:57.686Z,989.83
2019-01-09T09:32:57.720Z,989.86
2019-01-09T09:33:57.744Z,989.81
2019-01-09T09:34:57.783Z,989.87
2019-01-09T09:35:57.816Z,990.05
2019-01-09T09:36:57.850Z,989.96
2019-01-09T09:37:57.892Z,990.05
2019-01-09T09:38:58.071Z,990.04
2019-01-09T09:39:57.959Z,990.23
2019-01-09T09:40:57.992Z,990.08
2019-01-09T09:41:58.027Z,990.14
2019-01-09T09:42:58.063Z,989.94
2019-01-09T09:43:58.100Z,990.10
2019-01-09T09:44:58.135Z,990.18
2019-01-09T09:45:58.178Z,990.12
2019-01-09T09:46:58.204Z,990.10
2019-01-09T09:47:58.241Z,990.13
2019-01-09T09:48:58.279Z,990.15
2019-01-09T09:49:58.311Z,990.14
2019-01-09T09:50:58.344Z,990.14
2019-01-09T09:51:58.382Z,990.13
2019-01-09T09:52:58.426Z,990.17
2019-01-09T09:53:58.462Z,990.19
2019-01-09T09:54:58.488Z,990.11
2019-01-09T09:55:58.524Z,990.08
2019-01-09T09:56:58.559Z,990.13
2019-01-09T09:58:05.610Z,990.10
2019-01-09T09:58:58.633Z,990.19
2019-01-09T09:59:58.670Z,990.24
2019-01-09T10:00:58.711Z,990.15
2019-01-09T10:01:58.740Z,990.18
2019-01-09T10:02:58.770Z,990.20
2019-01-09T10:03:58.806Z,990.20
2019-01-09T10:04:58.843Z,990.20
2019-01-09T10:05:58.879Z,990.20
2019-01-09T10:06:58.912Z,990.24
2019-01-09T10:07:58.948Z,990.24
2019-01-09T10:08:58.983Z,990.33
2019-01-09T10:09:59.018Z,990.26
2019-01-09T10:10:59.058Z,990.37
2019-01-09T10:11:59.089Z,990.37
2019-01-09T10:12:59.126Z,990.30
2019-01-09T10:13:59.160Z,990.29
2019-01-09T10:14:59.205Z,990.38
2019-01-09T10:15:59.232Z,990.31
2019-01-09T10:16:59.269Z,990.36
2019-01-09T10:17:59.306Z,990.28
2019-01-09T10:18:59.350Z,990.44
2019-01-09T10:19:59.382Z,990.46
2019-01-09T10:20:59.411Z,990.33
2019-01-09T10:21:59.453Z,990.41
2019-01-09T10:22:59.490Z,990.40
2019-01-09T10:23:59.519Z,990.36
2019-01-09T10:24:59.557Z,990.44
2019-01-09T10:25:59.590Z,990.48
2019-01-09T10:26:59.625Z,990.31
2019-01-09T10:27:59.660Z,990.35
2019-01-09T10:28:59.700Z,990.44
2019-01-09T10:29:59.733Z,990.54
2019-01-09T10:30:59.765Z,990.50
2019-01-09T10:31:59.803Z,990.46
2019-01-09T10:32:59.845Z,990.48
2019-01-09T10:33:59.875Z,990.42
2019-01-09T10:34:59.909Z,990.42
2019-01-09T10:35:59.951Z,990.43
2019-01-09T10:36:59.979Z,990.52
2019-01-09T10:38:00.016Z,990.56
2019-01-09T10:39:00.050Z,990.48
2019-01-09T10:40:00.092Z,990.42
2019-01-09T10:41:00.122Z,990.44
2019-01-09T10:42:00.156Z,990.50
2019-01-09T10:43:00.193Z,990.48
2019-01-09T10:44:00.228Z,990.51
2019-01-09T10:45:00.265Z,990.59
2019-01-09T10:46:00.303Z,990.50
2019-01-09T10:47:00.339Z,990.46
2019-01-09T10:48:00.373Z,990.55
2019-01-09T10:49:00.408Z,990.53
2019-01-09T10:50:00.444Z,990.53
2019-01-09T10:51:00.482Z,990.53
2019-01-09T10:52:00.521Z,990.62
2019-01-09T10:53:00.549Z,990.55
2019-01-09T10:54:00.818Z,990.54
2019-01-09T10:55:00.621Z,990.57
2019-01-09T10:56:00.668Z,990.58
2019-01-09T10:57:00.702Z,990.62
2019-01-09T10:58:00.729Z,990.55
2019-01-09T10:59:00.763Z,990.53
2019-01-09T11:00:00.801Z,990.58
2019-01-09T11:01:00.847Z,990.57
2019-01-09T11:02:00.930Z,990.54
2019-01-09T11:03:00.907Z,990.55
2019-01-09T11:04:00.959Z,990.62
2019-01-09T11:05:00.981Z,990.58
2019-01-09T11:06:01.015Z,990.58
2019-01-09T11:07:01.058Z,990.57
2019-01-09T11:08:01.085Z,990.61
2019-01-09T11:09:01.173Z,990.63
2019-01-09T11:10:01.156Z,990.58
2019-01-09T11:11:01.200Z,990.56
2019-01-09T11:12:01.231Z,990.60
2019-01-09T11:13:01.261Z,990.62
2019-01-09T11:14:01.308Z,990.58
2019-01-09T11:15:01.353Z,990.56
2019-01-09T11:16:01.369Z,990.60
2019-01-09T11:17:01.404Z,990.63
2019-01-09T11:18:01.440Z,990.64
2019-01-09T11:19:01.475Z,990.61
2019-01-09T11:20:01.510Z,990.66
2019-01-09T11:21:03.541Z,990.65
2019-01-09T11:22:01.581Z,990.66
2019-01-09T11:23:01.616Z,990.66
2019-01-09T11:24:01.653Z,990.66
2019-01-09T11:25:01.983Z,990.64
2019-01-09T11:26:01.725Z,990.63
2019-01-09T11:27:01.759Z,990.73
2019-01-09T11:28:01.793Z,990.62
2019-01-09T11:29:01.830Z,990.67
2019-01-09T11:30:01.871Z,990.68
2019-01-09T11:31:01.899Z,990.69
2019-01-09T11:32:01.936Z,990.65
2019-01-09T11:33:01.971Z,990.61
2019-01-09T11:34:02.012Z,990.66
2019-01-09T11:35:02.045Z,990.64
2019-01-09T11:36:02.087Z,990.57
2019-01-09T11:37:02.181Z,990.62
2019-01-09T11:38:02.148Z,990.72
2019-01-09T11:39:02.182Z,990.58
2019-01-09T11:40:02.230Z,990.59
2019-01-09T11:41:02.263Z,990.61
2019-01-09T11:42:02.305Z,990.59
2019-01-09T11:43:03.757Z,990.58
2019-01-09T11:44:02.359Z,990.61
2019-01-09T11:45:02.401Z,990.65
2019-01-09T11:46:02.431Z,990.63
2019-01-09T11:47:02.494Z,990.64
2019-01-09T11:48:02.502Z,990.72
2019-01-09T11:49:02.546Z,990.75
2019-01-09T11:50:02.574Z,990.72
2019-01-09T11:51:02.616Z,990.66
2019-01-09T11:52:02.651Z,990.69
2019-01-09T11:53:02.679Z,990.64
2019-01-09T11:54:02.725Z,990.70
2019-01-09T11:55:02.748Z,990.70
2019-01-09T11:56:02.784Z,990.61
2019-01-09T11:57:02.820Z,990.68
2019-01-09T11:58:02.855Z,990.61
2019-01-09T11:59:02.890Z,990.60
2019-01-09T12:00:02.927Z,990.55
2019-01-09T12:01:02.969Z,990.61
2019-01-09T12:02:03.001Z,990.58
2019-01-09T12:03:03.032Z,990.58
2019-01-09T12:04:03.067Z,990.63
2019-01-09T12:05:03.104Z,990.60
2019-01-09T12:06:03.139Z,990.80
2019-01-09T12:07:03.178Z,990.69
2019-01-09T12:08:03.215Z,990.68
2019-01-09T12:09:04.701Z,990.67
2019-01-09T12:10:03.289Z,990.64
2019-01-09T12:11:03.329Z,990.60
2019-01-09T12:12:03.352Z,990.64
2019-01-09T12:13:03.388Z,990.70
2019-01-09T12:14:03.422Z,990.70
2019-01-09T12:15:03.458Z,990.67
2019-01-09T12:16:08.210Z,990.68
2019-01-09T12:17:03.529Z,990.66
2019-01-09T12:18:03.564Z,990.60
2019-01-09T12:19:03.600Z,990.72
2019-01-09T12:20:03.664Z,990.74
2019-01-09T12:21:03.671Z,990.64
2019-01-09T12:22:03.707Z,990.60
2019-01-09T12:23:03.742Z,990.70
2019-01-09T12:24:03.777Z,990.69
2019-01-09T12:25:03.815Z,990.72
2019-01-09T12:26:03.850Z,990.74
2019-01-09T12:27:03.883Z,990.76
2019-01-09T12:28:03.928Z,990.77
2019-01-09T12:29:03.954Z,990.73